createdAt,value
2023-03-23T15:58:43.108Z,2.13
2023-03-23T16:01:19.711Z,1.93
2023-03-23T16:03:57.764Z,2.13
2023-03-23T16:06:27.577Z,1.70
2023-03-23T16:08:55.925Z,1.87
2023-03-23T16:11:25.494Z,1.87
2023-03-23T16:13:53.125Z,1.80
2023-03-23T16:16:45.799Z,2.27
2023-03-23T16:19:16.148Z,2.10
2023-03-23T16:21:43.116Z,1.90
2023-03-23T16:24:10.621Z,1.80
2023-03-23T16:26:40.335Z,2.00
2023-03-23T16:29:22.290Z,1.97
2023-03-23T16:31:55.922Z,2.00
2023-03-23T16:34:23.072Z,2.13
2023-03-23T16:36:49.900Z,2.30
2023-03-23T16:39:18.989Z,2.10
2023-03-23T16:41:46.060Z,2.00
2023-03-23T16:44:13.288Z,1.90
2023-03-23T16:46:40.357Z,1.97
2023-03-23T16:49:07.211Z,2.23
2023-03-23T16:51:34.091Z,2.00
2023-03-23T16:54:00.966Z,1.73
2023-03-23T16:56:27.943Z,2.37
2023-03-23T16:58:54.779Z,2.00
2023-03-23T17:01:21.677Z,2.30
2023-03-23T17:03:48.539Z,2.27
2023-03-23T17:06:16.122Z,2.10
2023-03-23T17:08:43.003Z,1.87
2023-03-23T17:11:11.387Z,2.07
2023-03-23T17:13:39.020Z,2.00
2023-03-23T17:16:06.917Z,2.10
2023-03-23T17:18:33.790Z,1.93
2023-03-23T17:21:00.671Z,1.80
2023-03-23T17:23:27.590Z,1.90
2023-03-23T17:25:54.549Z,2.00
2023-03-23T17:28:21.814Z,2.07
2023-03-23T17:30:49.015Z,2.03
2023-03-23T17:33:15.937Z,2.07
2023-03-23T17:35:46.116Z,2.00
2023-03-23T17:38:13.221Z,2.00
2023-03-23T17:40:40.085Z,1.93
2023-03-23T17:43:07.035Z,1.97
2023-03-23T17:45:34.062Z,2.10
2023-03-23T17:48:01.144Z,1.97
2023-03-23T17:50:28.098Z,1.90
2023-03-23T17:52:57.013Z,2.20
2023-03-23T17:55:24.066Z,2.27
2023-03-23T17:57:51.048Z,2.10
2023-03-23T18:00:18.655Z,2.40
2023-03-23T18:02:45.579Z,2.03
2023-03-23T18:05:12.869Z,2.10
2023-03-23T18:07:39.829Z,2.60
2023-03-23T18:10:12.384Z,2.43
2023-03-23T18:12:40.876Z,2.50
2023-03-23T18:15:09.084Z,2.40
2023-03-23T18:17:36.153Z,2.27
2023-03-23T18:20:04.779Z,2.77
2023-03-23T18:22:31.664Z,2.43
2023-03-23T18:24:58.808Z,2.40
2023-03-23T18:27:26.147Z,2.50
2023-03-23T18:29:53.027Z,2.70
2023-03-23T18:32:20.648Z,2.50
2023-03-23T18:34:48.619Z,2.57
2023-03-23T18:37:15.942Z,2.40
2023-03-23T18:39:42.919Z,2.43
2023-03-23T18:42:09.855Z,2.57
2023-03-23T18:44:37.221Z,2.50
2023-03-23T18:47:04.240Z,2.30
2023-03-23T18:49:33.496Z,2.20
2023-03-23T18:52:00.927Z,2.40
2023-03-23T18:54:28.949Z,2.30
2023-03-23T18:57:00.373Z,2.67
2023-03-23T18:59:30.488Z,2.43
2023-03-23T19:01:58.008Z,3.20
2023-03-23T19:04:25.447Z,2.67
2023-03-23T19:06:52.644Z,3.13
2023-03-23T19:09:19.586Z,3.00
2023-03-23T19:11:47.430Z,3.00
2023-03-23T19:14:14.583Z,2.70
2023-03-23T19:16:41.986Z,2.90
2023-03-23T19:19:09.165Z,3.00
2023-03-23T19:21:40.332Z,2.83
2023-03-23T19:24:08.265Z,2.60
2023-03-23T19:26:39.193Z,2.87
2023-03-23T19:31:39.002Z,3.10
2023-03-23T19:34:06.665Z,2.70
2023-03-23T19:36:33.620Z,2.87
2023-03-23T19:39:02.610Z,2.43
2023-03-23T19:41:31.120Z,3.00
2023-03-23T19:43:59.378Z,2.77
2023-03-23T19:46:29.046Z,2.80
2023-03-23T19:48:57.534Z,3.10
2023-03-23T19:51:24.637Z,2.87
2023-03-23T19:53:51.975Z,2.70
2023-03-23T19:56:24.082Z,3.30
2023-03-23T19:58:51.325Z,2.60
2023-03-23T20:01:18.910Z,3.40
2023-03-23T20:03:46.574Z,2.70
2023-03-23T20:06:15.375Z,3.10
2023-03-23T20:08:45.653Z,3.10
2023-03-23T20:11:17.019Z,2.60
2023-03-23T20:13:45.994Z,2.60
2023-03-23T20:16:12.882Z,3.03
2023-03-23T20:18:40.983Z,2.90
2023-03-23T20:21:12.221Z,2.90
2023-03-23T20:23:41.535Z,2.60
2023-03-23T20:26:15.851Z,2.67
2023-03-23T20:28:43.367Z,2.67
2023-03-23T20:31:26.701Z,2.70
2023-03-23T20:34:03.369Z,2.73
2023-03-23T20:36:38.279Z,2.70
2023-03-23T20:39:14.112Z,2.93
2023-03-23T20:41:43.403Z,3.00
2023-03-23T20:44:15.748Z,3.00
2023-03-23T20:46:48.339Z,2.50
2023-03-23T20:49:16.100Z,3.20
2023-03-23T20:51:45.004Z,2.90
2023-03-23T20:54:15.820Z,2.97
2023-03-23T20:56:47.676Z,2.60
2023-03-23T20:59:15.556Z,3.30
2023-03-23T21:01:43.563Z,2.67
2023-03-23T21:04:19.852Z,3.30
2023-03-23T21:06:51.884Z,3.40
2023-03-23T21:09:19.597Z,2.70
2023-03-23T21:11:47.146Z,3.23
2023-03-23T21:14:14.984Z,3.17
2023-03-23T21:16:42.623Z,3.30
2023-03-23T21:19:10.320Z,3.27
2023-03-23T21:21:42.255Z,3.70
2023-03-23T21:24:28.967Z,3.50
2023-03-23T21:26:59.419Z,3.30
2023-03-23T21:29:27.470Z,3.60
2023-03-23T21:32:07.781Z,3.27
2023-03-23T21:34:36.899Z,3.67
2023-03-23T21:37:03.971Z,3.40
2023-03-23T21:39:30.846Z,3.33
2023-03-23T21:41:59.301Z,3.47
2023-03-23T21:44:26.362Z,3.40
2023-03-23T21:46:54.523Z,3.77
2023-03-23T21:49:21.685Z,3.90
2023-03-23T21:51:49.472Z,3.93
2023-03-23T21:54:16.360Z,3.47
2023-03-23T21:56:43.344Z,4.20
2023-03-23T21:59:10.240Z,3.87
2023-03-23T22:01:37.479Z,3.90
2023-03-23T22:04:05.158Z,3.23
2023-03-23T22:06:34.344Z,3.87
2023-03-23T22:09:05.214Z,3.80
2023-03-23T22:11:32.790Z,3.83
2023-03-23T22:14:00.750Z,3.67
2023-03-23T22:16:28.424Z,4.30
2023-03-23T22:18:59.597Z,3.30
2023-03-23T22:21:29.096Z,4.27
2023-03-23T22:23:58.652Z,4.10
2023-03-23T22:26:27.719Z,4.10
2023-03-23T22:28:55.482Z,4.07
2023-03-23T22:31:29.473Z,4.07
2023-03-23T22:33:57.371Z,4.07
2023-03-23T22:36:26.723Z,4.23
2023-03-23T22:38:55.559Z,4.57
2023-03-23T22:41:35.741Z,3.73
2023-03-23T22:44:04.397Z,5.00
2023-03-23T22:46:31.729Z,3.60
2023-03-23T22:48:58.562Z,3.90
2023-03-23T22:51:25.723Z,3.60
2023-03-23T22:53:52.658Z,3.90
2023-03-23T22:56:20.371Z,4.10
2023-03-23T22:58:47.457Z,4.23
2023-03-23T23:01:21.518Z,3.87
2023-03-23T23:03:49.114Z,4.33
2023-03-23T23:06:18.010Z,3.93
2023-03-23T23:08:46.734Z,4.10
2023-03-23T23:11:16.603Z,3.87
2023-03-23T23:13:44.288Z,4.10
2023-03-23T23:16:13.072Z,3.90
2023-03-23T23:18:40.688Z,4.07
2023-03-23T23:21:14.285Z,4.47
2023-03-23T23:23:41.537Z,4.43
2023-03-23T23:26:09.421Z,4.27
2023-03-23T23:28:36.877Z,4.20
2023-03-23T23:31:04.206Z,3.90
2023-03-23T23:33:31.101Z,4.03
2023-03-23T23:35:58.468Z,4.20
2023-03-23T23:38:26.053Z,4.07
2023-03-23T23:40:52.986Z,4.37
2023-03-23T23:43:19.893Z,4.00
2023-03-23T23:45:46.792Z,3.97
2023-03-23T23:48:13.774Z,4.30
2023-03-23T23:50:40.869Z,4.53
2023-03-23T23:53:09.892Z,3.97
2023-03-23T23:55:39.304Z,3.97
2023-03-23T23:58:06.258Z,4.23
